Time;durP1;ratioP1;P1;durP2;ratioP2;P2;SDS_P1;SDS_P2;PMS_P1;PMS_P2;Temp;Humidity;BMP_temperature;BMP_pressure;BME280_temperature;BME280_humidity;BME280_pressure;Samples;Min_cycle;Max_cycle;Signal;HPM_P1;HPM_P2
2022/06/04 00:00:14;;;;;;;12.07;9.20;;;22.20;51.70;;;;;;5042159;28;20465;-69
2022/06/04 00:02:42;;;;;;;14.07;9.13;;;22.10;51.20;;;;;;5047268;28;20666;-69
2022/06/04 00:05:09;;;;;;;13.53;9.90;;;22.20;51.20;;;;;;5041095;28;20429;-69
2022/06/04 00:07:35;;;;;;;15.03;9.43;;;22.20;50.40;;;;;;5036426;28;20423;-68
2022/06/04 00:15:49;;;;;;;14.50;9.30;;;22.30;50.20;;;;;;5049076;28;20873;-68
2022/06/04 00:18:16;;;;;;;16.57;9.67;;;22.00;51.60;;;;;;5049073;28;20508;-68
2022/06/04 00:20:43;;;;;;;19.03;9.10;;;22.00;52.00;;;;;;5047631;28;20431;-69
2022/06/04 00:23:11;;;;;;;11.43;9.13;;;22.00;51.70;;;;;;5050514;28;20493;-69
2022/06/04 00:25:39;;;;;;;13.90;9.70;;;21.90;51.80;;;;;;5045265;28;20481;-69
2022/06/04 00:28:07;;;;;;;13.33;8.63;;;21.90;52.00;;;;;;5049322;28;20426;-69
2022/06/04 00:30:33;;;;;;;13.13;9.57;;;22.10;50.90;;;;;;5049136;28;20426;-69
2022/06/04 00:32:59;;;;;;;13.03;9.80;;;21.90;51.70;;;;;;5054518;28;20448;-69
2022/06/04 00:35:26;;;;;;;13.07;9.50;;;21.80;52.60;;;;;;5048813;28;20446;-68
2022/06/04 00:37:52;;;;;;;16.70;9.80;;;21.80;52.20;;;;;;5054181;28;20202;-69
2022/06/04 00:40:31;;;;;;;11.60;9.37;;;21.80;52.10;;;;;;5054370;28;20466;-69
2022/06/04 00:42:57;;;;;;;16.73;10.70;;;21.80;51.50;;;;;;5053852;28;20451;-69
2022/06/04 00:45:23;;;;;;;13.30;9.70;;;21.70;51.80;;;;;;5050992;28;20438;-69
2022/06/04 00:47:49;;;;;;;13.33;9.80;;;21.90;51.30;;;;;;5051247;28;20522;-69
2022/06/04 00:50:18;;;;;;;13.13;9.30;;;21.80;52.20;;;;;;5050503;28;20271;-69
2022/06/04 00:52:49;;;;;;;12.43;9.80;;;21.60;52.60;;;;;;5050560;28;20448;-69
2022/06/04 00:55:16;;;;;;;13.37;9.77;;;21.70;52.40;;;;;;5052822;28;20433;-68
2022/06/04 00:58:23;;;;;;;14.60;9.80;;;21.70;52.10;;;;;;5046912;28;20426;-69
2022/06/04 01:01:00;;;;;;;11.87;9.50;;;21.60;52.70;;;;;;5011349;28;20519;-68
2022/06/04 01:03:36;;;;;;;13.20;9.83;;;21.70;51.50;;;;;;5007623;28;20455;-69
2022/06/04 01:06:25;;;;;;;15.50;9.10;;;21.80;51.20;;;;;;5007863;28;20528;-69
2022/06/04 01:09:09;;;;;;;13.20;9.00;;;21.80;51.50;;;;;;5010940;28;20497;-69
2022/06/04 01:12:10;;;;;;;10.50;8.97;;;21.50;52.60;;;;;;5011460;28;20448;-69
2022/06/04 01:15:11;;;;;;;14.53;9.70;;;21.40;53.90;;;;;;5004875;28;20414;-69
2022/06/04 01:18:02;;;;;;;12.10;9.40;;;21.40;53.80;;;;;;5006380;28;20523;-69
2022/06/04 01:21:05;;;;;;;13.07;9.23;;;21.30;54.10;;;;;;5009044;28;20468;-69
2022/06/04 01:23:49;;;;;;;13.50;10.13;;;21.40;53.50;;;;;;5007046;28;20691;-69
2022/06/04 01:26:39;;;;;;;13.00;9.57;;;21.40;53.20;;;;;;4990980;28;20435;-69
2022/06/04 01:29:12;;;;;;;15.10;10.10;;;21.50;52.60;;;;;;5008144;28;20945;-69
2022/06/04 01:31:48;;;;;;;16.40;10.27;;;21.50;53.40;;;;;;5006665;28;20457;-69
2022/06/04 01:34:21;;;;;;;12.07;9.80;;;21.40;53.20;;;;;;5007221;28;20419;-69
2022/06/04 01:37:14;;;;;;;12.30;10.27;;;21.50;52.60;;;;;;5004330;28;20463;-69
2022/06/04 01:42:34;;;;;;;14.00;10.00;;;21.20;54.00;;;;;;5051835;28;20470;-69
2022/06/04 01:45:04;;;;;;;12.97;9.70;;;21.20;54.00;;;;;;5042402;28;20418;-69
2022/06/04 01:47:32;;;;;;;15.63;9.83;;;21.10;54.60;;;;;;5051447;28;20929;-68
2022/06/04 01:50:00;;;;;;;12.00;9.80;;;21.10;54.00;;;;;;5051839;28;20422;-69
2022/06/04 01:52:36;;;;;;;15.50;10.30;;;21.00;54.80;;;;;;5045712;28;20475;-69
2022/06/04 01:55:14;;;;;;;14.20;9.90;;;20.90;54.60;;;;;;5050873;28;20432;-68
2022/06/04 01:58:00;;;;;;;15.67;9.70;;;20.80;54.90;;;;;;5045811;28;20429;-68
2022/06/04 02:00:37;;;;;;;12.80;9.93;;;20.80;55.20;;;;;;5041457;28;20460;-69
2022/06/04 02:03:14;;;;;;;13.70;10.33;;;20.70;56.10;;;;;;5037031;28;20458;-69
2022/06/04 02:05:45;;;;;;;15.80;10.33;;;20.70;55.90;;;;;;5052839;28;20864;-69
2022/06/04 02:08:16;;;;;;;13.00;10.13;;;20.60;55.80;;;;;;5044296;28;20410;-69
2022/06/04 02:10:50;;;;;;;14.70;10.37;;;20.70;56.00;;;;;;5050020;28;20484;-69
2022/06/04 02:13:17;;;;;;;15.97;10.70;;;20.80;54.80;;;;;;5048318;28;20449;-68
2022/06/04 02:16:03;;;;;;;12.80;10.73;;;20.90;53.90;;;;;;5044221;28;20437;-69
2022/06/04 02:18:29;;;;;;;13.80;10.60;;;20.80;53.80;;;;;;5052077;28;20453;-69
2022/06/04 02:20:54;;;;;;;18.20;12.73;;;20.80;54.20;;;;;;5050920;28;20430;-69
2022/06/04 02:23:20;;;;;;;12.73;10.40;;;20.80;54.70;;;;;;5048467;28;20449;-68
2022/06/04 02:25:46;;;;;;;13.13;10.50;;;20.60;55.10;;;;;;5048349;28;20201;-69
2022/06/04 02:28:12;;;;;;;14.10;11.27;;;20.60;55.50;;;;;;5048062;28;20202;-69
2022/06/04 02:31:11;;;;;;;16.33;10.23;;;20.70;55.20;;;;;;5047320;28;20934;-69
2022/06/04 02:33:44;;;;;;;15.27;10.40;;;20.70;55.20;;;;;;5045654;28;20484;-68
2022/06/04 02:36:19;;;;;;;11.73;10.00;;;20.70;54.90;;;;;;5046098;28;20476;-69
2022/06/04 02:38:55;;;;;;;11.67;9.43;;;20.70;54.50;;;;;;5046370;28;20538;-69
2022/06/04 02:41:27;;;;;;;13.73;10.00;;;20.70;54.50;;;;;;5048080;28;20706;-69
2022/06/04 02:44:07;;;;;;;10.50;8.90;;;20.90;53.40;;;;;;5049234;28;20441;-68
2022/06/04 02:46:56;;;;;;;13.30;9.97;;;21.00;52.90;;;;;;5043143;28;20418;-69
2022/06/04 02:49:27;;;;;;;15.50;10.67;;;20.90;53.60;;;;;;5040303;28;20867;-69
2022/06/04 02:51:55;;;;;;;10.60;9.00;;;20.90;53.80;;;;;;5049460;28;20493;-68
2022/06/04 02:54:28;;;;;;;11.87;9.30;;;20.70;54.50;;;;;;5045128;28;20770;-69
2022/06/04 02:56:56;;;;;;;13.00;10.07;;;20.60;54.80;;;;;;5050011;28;20422;-72
2022/06/04 02:59:25;;;;;;;12.93;9.90;;;20.50;55.20;;;;;;5050458;28;20475;-69
2022/06/04 03:01:54;;;;;;;13.43;9.60;;;20.60;55.10;;;;;;5042830;28;20457;-69
2022/06/04 03:04:19;;;;;;;13.30;10.20;;;20.60;54.70;;;;;;5047971;28;20815;-68
2022/06/04 03:06:45;;;;;;;11.87;8.97;;;20.70;54.80;;;;;;5040578;28;20444;-69
2022/06/04 03:09:14;;;;;;;15.43;9.50;;;20.70;55.20;;;;;;5049745;28;20683;-69
2022/06/04 03:11:48;;;;;;;13.73;9.50;;;20.70;54.40;;;;;;5050543;28;20294;-69
2022/06/04 03:14:17;;;;;;;17.90;10.40;;;20.80;53.70;;;;;;5048938;28;20427;-69
2022/06/04 03:16:44;;;;;;;13.50;10.10;;;21.00;52.30;;;;;;5051325;28;20417;-69
2022/06/04 03:19:11;;;;;;;11.10;9.10;;;21.10;51.90;;;;;;5044950;28;20980;-69
2022/06/04 03:21:38;;;;;;;21.10;15.60;;;20.90;53.50;;;;;;5050919;28;20975;-69
2022/06/04 03:24:05;;;;;;;11.87;9.90;;;20.80;53.90;;;;;;5050839;28;20493;-67
2022/06/04 03:26:31;;;;;;;15.23;9.80;;;20.80;54.60;;;;;;5050055;28;20437;-69
2022/06/04 03:28:57;;;;;;;15.37;10.10;;;20.80;54.60;;;;;;5043518;28;20439;-69
2022/06/04 03:31:24;;;;;;;18.50;9.77;;;20.70;55.00;;;;;;5044743;28;20514;-69
2022/06/04 03:33:50;;;;;;;19.53;10.53;;;20.70;55.50;;;;;;5041750;28;20544;-69
2022/06/04 03:36:16;;;;;;;13.00;10.80;;;20.60;56.00;;;;;;5046330;28;20437;-69
2022/06/04 03:38:41;;;;;;;14.77;10.80;;;20.60;56.00;;;;;;5042488;28;20214;-69
2022/06/04 03:41:08;;;;;;;16.20;11.20;;;20.70;56.10;;;;;;5046329;28;20198;-68
2022/06/04 03:43:34;;;;;;;14.67;11.13;;;20.70;55.90;;;;;;5050049;28;20940;-68
2022/06/04 03:45:59;;;;;;;18.53;9.97;;;20.70;56.00;;;;;;5048584;28;20205;-69
2022/06/04 03:48:25;;;;;;;12.23;9.40;;;20.40;56.50;;;;;;5044574;28;20281;-68
2022/06/04 03:50:50;;;;;;;12.87;9.87;;;19.90;59.80;;;;;;5042862;28;20290;-68
2022/06/04 03:53:16;;;;;;;16.17;10.53;;;19.70;61.80;;;;;;5047197;28;20239;-69
2022/06/04 03:55:42;;;;;;;13.23;9.80;;;19.80;62.00;;;;;;5047476;28;20179;-68
2022/06/04 03:58:07;;;;;;;13.63;9.80;;;19.70;62.60;;;;;;5042500;28;20290;-68
2022/06/04 04:00:38;;;;;;;14.73;10.33;;;19.30;67.00;;;;;;5038801;28;20200;-68
2022/06/04 04:03:11;;;;;;;14.83;10.60;;;18.90;72.10;;;;;;5051520;28;20198;-68
2022/06/04 04:05:46;;;;;;;16.67;10.30;;;19.00;71.40;;;;;;5049567;28;20770;-68
2022/06/04 04:08:12;;;;;;;13.50;10.33;;;19.30;69.60;;;;;;5056127;28;20444;-69
2022/06/04 04:10:40;;;;;;;15.60;11.80;;;19.90;63.30;;;;;;5056470;28;20441;-69
2022/06/04 04:13:06;;;;;;;15.20;11.10;;;20.30;61.50;;;;;;5056506;28;20445;-68
2022/06/04 04:15:32;;;;;;;16.47;11.43;;;20.60;59.20;;;;;;5042065;28;20444;-69
2022/06/04 04:17:58;;;;;;;18.00;11.53;;;20.70;58.50;;;;;;5055745;28;20433;-69
2022/06/04 04:20:30;;;;;;;14.63;11.27;;;20.70;58.50;;;;;;5054846;28;20458;-70
2022/06/04 04:22:56;;;;;;;19.40;11.57;;;20.80;57.90;;;;;;5057174;28;20285;-69
2022/06/04 04:25:24;;;;;;;13.10;11.03;;;20.90;57.60;;;;;;5048647;28;20433;-69
2022/06/04 04:27:50;;;;;;;18.97;11.20;;;21.10;57.70;;;;;;5053589;28;20913;-69
2022/06/04 04:30:20;;;;;;;13.80;10.90;;;21.10;57.20;;;;;;5052770;28;20440;-69
2022/06/04 04:32:45;;;;;;;18.20;11.53;;;21.30;56.30;;;;;;5051929;28;20469;-69
2022/06/04 04:35:15;;;;;;;16.63;11.40;;;21.40;55.00;;;;;;5049209;28;20422;-69
2022/06/04 04:37:42;;;;;;;20.90;12.07;;;21.30;53.70;;;;;;5051633;28;20224;-68
2022/06/04 04:40:08;;;;;;;16.33;11.80;;;20.30;59.30;;;;;;5057345;28;20512;-68
2022/06/04 04:42:34;;;;;;;16.70;12.60;;;20.30;60.50;;;;;;5053924;28;20473;-69
2022/06/04 04:45:00;;;;;;;15.67;11.77;;;20.60;59.10;;;;;;5049425;28;20518;-69
2022/06/04 04:47:25;;;;;;;15.93;11.27;;;20.70;55.90;;;;;;5051918;28;20172;-69
2022/06/04 04:49:51;;;;;;;13.30;10.50;;;20.10;60.40;;;;;;5054950;28;20190;-69
2022/06/04 04:52:17;;;;;;;13.53;10.97;;;19.80;62.60;;;;;;5045542;28;20204;-69
2022/06/04 04:54:43;;;;;;;16.20;11.80;;;20.10;62.60;;;;;;5052780;28;20489;-69
2022/06/04 04:57:08;;;;;;;17.90;13.23;;;20.10;62.50;;;;;;5053714;28;20426;-69
2022/06/04 04:59:34;;;;;;;26.17;14.43;;;20.10;62.10;;;;;;5050913;28;20206;-68
2022/06/04 05:02:00;;;;;;;19.70;13.10;;;19.80;63.30;;;;;;5054446;28;20305;-68
2022/06/04 05:04:25;;;;;;;20.50;13.10;;;19.80;63.80;;;;;;5049368;28;20177;-69
2022/06/04 05:06:51;;;;;;;19.73;13.93;;;20.00;62.50;;;;;;5057015;28;20662;-68
2022/06/04 05:09:16;;;;;;;17.37;12.67;;;19.60;65.50;;;;;;5045411;28;20548;-68
2022/06/04 05:11:42;;;;;;;19.10;12.17;;;19.70;66.60;;;;;;5050438;28;20223;-69
2022/06/04 05:14:08;;;;;;;17.30;12.43;;;19.20;70.10;;;;;;5044136;28;20190;-68
2022/06/04 05:16:36;;;;;;;17.47;11.33;;;18.90;73.90;;;;;;5043691;28;20593;-69
2022/06/04 05:19:03;;;;;;;14.67;10.60;;;19.00;73.10;;;;;;5045188;28;20207;-69
2022/06/04 05:21:39;;;;;;;15.67;11.10;;;18.90;73.40;;;;;;5046487;28;20548;-69
2022/06/04 05:24:05;;;;;;;18.60;11.87;;;18.90;74.80;;;;;;5042381;28;20421;-68
2022/06/04 05:26:32;;;;;;;20.37;12.10;;;18.80;76.00;;;;;;5041488;28;20433;-68
2022/06/04 05:28:58;;;;;;;15.30;11.67;;;19.20;74.40;;;;;;5043638;28;20442;-70
2022/06/04 05:31:24;;;;;;;20.13;12.40;;;20.20;64.70;;;;;;5046102;28;20465;-70
2022/06/04 05:33:49;;;;;;;18.60;11.40;;;20.70;60.00;;;;;;5053029;28;20827;-69
2022/06/04 05:36:15;;;;;;;12.47;10.03;;;20.90;59.50;;;;;;5053242;28;20435;-69
2022/06/04 05:38:42;;;;;;;16.43;11.17;;;21.20;57.90;;;;;;5053335;28;20363;-68
2022/06/04 05:41:13;;;;;;;18.33;10.47;;;20.60;62.70;;;;;;5050673;28;20423;-69
2022/06/04 05:43:39;;;;;;;14.80;10.13;;;21.10;59.40;;;;;;5039814;28;20435;-69
2022/06/04 05:46:07;;;;;;;12.80;10.00;;;21.40;58.30;;;;;;5051427;28;20851;-69
2022/06/04 05:48:36;;;;;;;13.10;9.57;;;21.30;59.10;;;;;;5052144;28;20966;-69
2022/06/04 05:51:02;;;;;;;13.10;9.70;;;21.50;56.80;;;;;;5050953;28;20486;-69
2022/06/04 05:53:28;;;;;;;12.73;10.10;;;21.80;54.20;;;;;;5089078;22;21027;-72
2022/06/04 05:55:54;;;;;;;12.97;8.40;;;21.70;54.70;;;;;;5050978;28;20526;-72
2022/06/04 05:58:20;;;;;;;13.57;9.67;;;21.20;58.30;;;;;;5050198;28;20508;-72
2022/06/04 06:00:45;;;;;;;12.57;8.70;;;20.60;59.80;;;;;;5049876;28;20218;-74
2022/06/04 06:03:11;;;;;;;14.00;8.90;;;20.80;58.90;;;;;;5046955;28;20409;-72
2022/06/04 06:05:42;;;;;;;10.30;8.03;;;20.80;59.80;;;;;;5051943;28;20176;-72
2022/06/04 06:08:08;;;;;;;11.73;8.07;;;21.50;56.20;;;;;;5046924;28;20772;-71
2022/06/04 06:10:39;;;;;;;11.93;8.40;;;21.90;55.00;;;;;;5047772;28;20449;-71
2022/06/04 06:13:05;;;;;;;12.63;7.77;;;22.00;53.80;;;;;;5048964;28;20421;-72
2022/06/04 06:15:31;;;;;;;15.60;7.83;;;21.90;54.50;;;;;;5051188;28;20429;-72
2022/06/04 06:17:56;;;;;;;16.80;7.70;;;21.60;55.80;;;;;;5047177;28;20191;-71
2022/06/04 06:20:22;;;;;;;17.73;8.20;;;21.50;59.30;;;;;;5047692;28;20208;-72
2022/06/04 06:22:47;;;;;;;11.57;8.20;;;21.40;60.70;;;;;;5052078;28;20182;-72
2022/06/04 06:25:13;;;;;;;11.47;7.87;;;21.40;60.60;;;;;;5042393;28;21341;-70
2022/06/04 06:27:39;;;;;;;12.87;8.60;;;21.60;60.70;;;;;;5048549;28;20179;-71
2022/06/04 06:30:05;;;;;;;17.07;9.03;;;22.00;59.70;;;;;;5045022;28;20223;-72
2022/06/04 06:32:31;;;;;;;17.97;9.87;;;22.30;60.00;;;;;;5046909;28;20676;-72
2022/06/04 06:34:57;;;;;;;22.83;10.30;;;22.40;59.10;;;;;;5047486;28;20446;-72
2022/06/04 06:37:22;;;;;;;17.17;10.00;;;22.20;59.90;;;;;;5043517;28;20191;-72
2022/06/04 06:39:48;;;;;;;16.03;10.20;;;22.30;60.40;;;;;;5043132;28;20214;-72
2022/06/04 06:42:13;;;;;;;18.33;10.43;;;22.30;60.90;;;;;;5051267;28;20185;-72
2022/06/04 06:44:39;;;;;;;15.07;10.40;;;22.30;60.80;;;;;;5042760;28;20278;-73
2022/06/04 06:47:05;;;;;;;24.70;9.87;;;22.30;61.60;;;;;;5046624;28;20174;-72
2022/06/04 06:49:31;;;;;;;16.63;9.87;;;22.20;62.60;;;;;;5047604;28;20425;-72
2022/06/04 06:52:01;;;;;;;15.10;9.40;;;22.30;62.90;;;;;;5043141;28;20770;-72
2022/06/04 06:54:34;;;;;;;13.70;8.60;;;22.30;62.20;;;;;;5050727;28;20287;-71
2022/06/04 06:57:01;;;;;;;13.30;8.73;;;22.30;62.50;;;;;;5043529;28;20519;-72
2022/06/04 06:59:28;;;;;;;14.00;8.90;;;21.70;64.10;;;;;;5042944;28;20462;-72
2022/06/04 07:01:55;;;;;;;12.70;8.20;;;21.20;71.00;;;;;;5042254;28;20421;-72
2022/06/04 07:04:22;;;;;;;14.70;9.50;;;21.80;69.60;;;;;;5044952;28;20491;-72
2022/06/04 07:06:50;;;;;;;18.40;8.10;;;22.00;69.30;;;;;;5044169;28;20537;-71
2022/06/04 07:09:16;;;;;;;13.67;8.20;;;21.80;70.10;;;;;;5046266;28;20422;-72
2022/06/04 07:11:42;;;;;;;13.57;8.80;;;20.90;72.40;;;;;;5047133;28;20431;-72
2022/06/04 07:14:08;;;;;;;27.03;11.80;;;20.20;83.90;;;;;;5047294;28;20275;-71
2022/06/04 07:16:34;;;;;;;13.63;10.17;;;20.20;82.10;;;;;;5047649;28;20538;-72
2022/06/04 07:19:00;;;;;;;14.73;9.77;;;;;;;;;;5044206;28;21047;-72
2022/06/04 07:21:27;;;;;;;19.57;11.20;;;19.80;88.40;;;;;;5045029;28;20414;-72
2022/06/04 07:23:53;;;;;;;23.87;11.53;;;19.20;91.80;;;;;;5050806;28;20451;-72
2022/06/04 07:26:20;;;;;;;20.83;13.60;;;18.70;94.20;;;;;;5045115;28;20940;-71
2022/06/04 07:28:45;;;;;;;18.50;12.40;;;18.70;94.80;;;;;;5042072;28;20436;-74
2022/06/04 07:31:14;;;;;;;21.87;13.20;;;19.10;94.00;;;;;;5036966;28;20541;-73
2022/06/04 07:33:43;;;;;;;18.60;13.53;;;19.70;90.70;;;;;;5043861;28;20212;-73
2022/06/04 07:36:14;;;;;;;25.23;15.03;;;19.70;91.30;;;;;;5044937;28;20432;-73
2022/06/04 07:38:40;;;;;;;25.63;14.67;;;20.60;84.00;;;;;;5043471;28;20432;-72
2022/06/04 07:41:06;;;;;;;26.63;14.07;;;20.90;80.50;;;;;;5039444;28;20437;-75
2022/06/04 07:43:31;;;;;;;24.77;13.73;;;21.50;74.90;;;;;;5048496;28;20205;-72
2022/06/04 07:45:57;;;;;;;31.70;15.03;;;21.80;70.30;;;;;;5048196;28;20221;-72
2022/06/04 07:48:22;;;;;;;24.80;13.20;;;22.00;68.90;;;;;;5048433;28;20196;-71
2022/06/04 07:50:48;;;;;;;19.43;13.10;;;22.30;63.00;;;;;;5047731;28;20667;-72
2022/06/04 07:53:14;;;;;;;23.50;13.27;;;22.70;63.90;;;;;;5047259;28;20191;-72
2022/06/04 07:55:42;;;;;;;18.67;13.20;;;22.70;64.60;;;;;;5037907;28;20666;-72
2022/06/04 07:58:08;;;;;;;17.10;12.60;;;22.90;66.10;;;;;;5046694;28;20188;-71
2022/06/04 08:00:38;;;;;;;18.13;11.90;;;22.90;64.60;;;;;;5044408;28;20516;-72
2022/06/04 08:03:04;;;;;;;16.03;11.13;;;23.20;56.00;;;;;;5041170;28;20516;-72
2022/06/04 08:05:30;;;;;;;15.13;10.50;;;23.20;56.50;;;;;;5044089;28;20440;-72
2022/06/04 08:07:56;;;;;;;20.40;10.90;;;23.10;58.60;;;;;;5045671;28;20437;-73
2022/06/04 08:10:21;;;;;;;15.93;11.33;;;23.10;62.80;;;;;;5042890;28;20207;-73
2022/06/04 08:12:58;;;;;;;18.73;10.70;;;23.10;58.40;;;;;;5046212;28;20751;-73
2022/06/04 08:15:24;;;;;;;16.13;11.20;;;23.30;58.80;;;;;;5044433;28;20207;-73
2022/06/04 08:17:50;;;;;;;16.00;10.80;;;23.40;62.20;;;;;;5046452;28;20499;-73
2022/06/04 08:20:16;;;;;;;18.50;11.40;;;23.50;61.10;;;;;;5045227;28;20211;-71
2022/06/04 08:22:42;;;;;;;18.50;12.07;;;23.60;61.20;;;;;;5044979;28;20186;-71
2022/06/04 08:25:08;;;;;;;23.90;11.40;;;23.70;62.00;;;;;;5041147;28;20454;-74
2022/06/04 08:27:34;;;;;;;14.30;9.00;;;23.70;63.30;;;;;;5040325;28;20190;-73
2022/06/04 08:30:00;;;;;;;15.73;9.17;;;23.90;57.50;;;;;;5044481;28;20187;-73
2022/06/04 08:32:25;;;;;;;17.37;9.47;;;23.80;57.50;;;;;;5039774;28;20937;-72
2022/06/04 08:34:51;;;;;;;12.37;9.33;;;23.90;60.90;;;;;;5041377;28;20612;-73
2022/06/04 08:37:16;;;;;;;12.90;8.90;;;23.90;62.20;;;;;;5035895;28;20650;-73
2022/06/04 08:39:42;;;;;;;13.90;9.00;;;23.80;61.40;;;;;;5046297;28;20218;-72
2022/06/04 08:42:10;;;;;;;12.53;8.80;;;23.50;61.70;;;;;;5048212;28;20252;-72
2022/06/04 08:44:40;;;;;;;14.50;9.00;;;23.60;63.50;;;;;;5040377;28;20204;-73
2022/06/04 08:47:09;;;;;;;18.90;9.50;;;24.00;58.50;;;;;;5041841;28;20436;-74
2022/06/04 08:49:39;;;;;;;17.30;8.60;;;24.30;56.10;;;;;;5041747;28;20441;-74
2022/06/04 08:52:54;;;;;;;15.77;9.07;;;24.30;53.80;;;;;;5046475;28;20452;-71
2022/06/04 08:58:26;;;;;;;9.57;7.80;;;24.50;55.60;;;;;;5045823;28;20429;-73
2022/06/04 09:00:55;;;;;;;12.43;6.20;;;24.70;49.90;;;;;;5050326;28;20567;-74
2022/06/04 09:03:42;;;;;;;8.30;5.60;;;24.40;42.20;;;;;;5050968;28;20964;-74
2022/06/04 09:06:19;;;;;;;8.07;5.93;;;24.30;43.40;;;;;;5047462;28;20454;-73
2022/06/04 09:08:50;;;;;;;8.20;6.20;;;24.20;48.40;;;;;;5038139;28;21028;-73
2022/06/04 09:11:24;;;;;;;9.30;5.80;;;24.50;50.60;;;;;;5041424;28;20430;-72
2022/06/04 09:14:17;;;;;;;9.20;6.10;;;24.60;52.00;;;;;;5043248;28;21017;-73
2022/06/04 09:17:03;;;;;;;8.97;5.37;;;24.80;47.80;;;;;;5041497;28;20519;-73
2022/06/04 09:19:34;;;;;;;12.80;5.30;;;24.40;45.80;;;;;;5042409;28;20459;-72
2022/06/04 09:22:02;;;;;;;7.53;5.20;;;24.70;43.80;;;;;;5046114;28;20434;-73
2022/06/04 09:24:27;;;;;;;8.10;5.53;;;24.90;45.10;;;;;;5043110;28;20449;-69
2022/06/04 09:27:33;;;;;;;7.17;5.40;;;24.70;42.80;;;;;;5046203;28;20442;-73
2022/06/04 09:30:10;;;;;;;9.70;5.83;;;24.20;43.90;;;;;;5001168;28;20211;-73
2022/06/04 09:32:47;;;;;;;9.40;5.93;;;24.60;43.00;;;;;;5001737;28;20790;-72
2022/06/04 09:35:21;;;;;;;10.60;5.67;;;24.60;44.00;;;;;;5002080;28;20456;-71
2022/06/04 09:37:49;;;;;;;7.80;5.80;;;24.60;43.20;;;;;;5001940;28;20542;-73
2022/06/04 09:40:23;;;;;;;10.60;6.20;;;24.30;43.70;;;;;;5008341;28;20490;-73
2022/06/04 09:42:49;;;;;;;9.90;5.80;;;24.80;43.90;;;;;;5004240;28;20448;-73
2022/06/04 09:45:27;;;;;;;6.80;5.63;;;24.50;44.40;;;;;;5001830;28;20470;-74
2022/06/04 09:47:57;;;;;;;12.87;5.80;;;24.90;44.50;;;;;;5005876;28;20479;-73
2022/06/04 09:50:22;;;;;;;8.60;5.20;;;24.30;41.00;;;;;;5003393;28;20447;-73
2022/06/04 09:53:09;;;;;;;7.50;5.60;;;24.60;42.60;;;;;;5001454;28;20443;-72
2022/06/04 09:55:37;;;;;;;7.70;5.53;;;24.10;44.30;;;;;;5004732;28;20243;-72
2022/06/04 09:58:02;;;;;;;11.70;5.87;;;23.80;46.00;;;;;;5005917;28;20455;-72
2022/06/04 10:00:34;;;;;;;7.87;6.00;;;23.80;46.20;;;;;;5009947;28;20486;-72
2022/06/04 10:03:01;;;;;;;10.53;6.30;;;24.50;47.20;;;;;;5009495;28;20573;-72
2022/06/04 10:05:30;;;;;;;11.87;6.90;;;24.40;44.80;;;;;;5024835;28;20433;-72
2022/06/04 10:07:57;;;;;;;8.90;6.40;;;24.40;45.80;;;;;;5052610;28;20937;-72
2022/06/04 10:10:49;;;;;;;9.77;6.47;;;24.90;45.20;;;;;;5045423;28;20427;-73
2022/06/04 10:13:43;;;;;;;8.97;5.97;;;24.90;44.80;;;;;;5040253;28;20430;-73
2022/06/04 10:16:20;;;;;;;11.17;7.67;;;25.40;42.40;;;;;;5050449;28;20489;-72
2022/06/04 10:19:03;;;;;;;14.07;7.10;;;24.70;46.00;;;;;;5040241;28;20521;-73
2022/06/04 10:21:40;;;;;;;8.47;6.00;;;25.00;45.80;;;;;;5043479;28;20509;-72
2022/06/04 10:24:27;;;;;;;8.83;6.33;;;25.00;41.20;;;;;;5048917;28;20552;-72
2022/06/04 10:27:03;;;;;;;8.83;5.60;;;24.90;42.10;;;;;;5051981;28;20425;-72
2022/06/04 10:29:33;;;;;;;8.93;6.13;;;25.00;41.60;;;;;;5051707;28;20429;-73
2022/06/04 10:32:01;;;;;;;10.27;6.37;;;25.40;38.60;;;;;;5052277;28;20426;-72
2022/06/04 10:34:39;;;;;;;10.97;6.03;;;25.50;39.30;;;;;;5043017;28;20937;-73
2022/06/04 10:37:16;;;;;;;10.53;6.93;;;26.10;43.70;;;;;;5051903;28;20426;-72
2022/06/04 10:40:21;;;;;;;8.97;6.80;;;26.10;38.70;;;;;;5047053;28;20454;-73
2022/06/04 10:43:22;;;;;;;10.63;6.80;;;26.20;42.10;;;;;;5006611;28;20910;-72
2022/06/04 10:46:27;;;;;;;12.87;7.30;;;25.80;40.60;;;;;;5045486;28;21117;-73
2022/06/04 10:49:26;;;;;;;8.40;6.73;;;26.80;39.70;;;;;;5014229;28;20459;-72
2022/06/04 10:52:28;;;;;;;9.93;7.00;;;27.40;37.10;;;;;;5045517;28;20539;-72
2022/06/04 10:55:34;;;;;;;7.93;6.80;;;25.80;40.90;;;;;;5044829;28;20459;-73
2022/06/04 10:58:38;;;;;;;11.10;7.80;;;26.40;43.70;;;;;;5040052;28;20435;-72
2022/06/04 11:01:25;;;;;;;9.17;7.40;;;26.50;40.10;;;;;;5045730;28;21274;-73
2022/06/04 11:03:57;;;;;;;14.87;7.40;;;25.90;42.10;;;;;;5043719;28;20454;-73
2022/06/04 11:06:46;;;;;;;15.27;7.47;;;25.50;44.70;;;;;;5043840;28;20771;-73
2022/06/04 11:09:23;;;;;;;12.10;8.23;;;26.20;47.20;;;;;;5051292;28;20521;-73
2022/06/04 11:11:56;;;;;;;11.87;8.20;;;27.30;43.00;;;;;;5043309;28;20418;-73
2022/06/04 11:14:30;;;;;;;12.70;8.03;;;26.70;39.80;;;;;;5050739;28;20445;-72
2022/06/04 11:17:05;;;;;;;18.33;8.13;;;27.00;45.00;;;;;;5042948;28;20425;-73
2022/06/04 11:19:45;;;;;;;12.23;7.60;;;28.10;42.40;;;;;;5042212;28;20501;-73
2022/06/04 11:22:18;;;;;;;18.13;8.60;;;28.70;36.90;;;;;;5044836;28;20821;-73
2022/06/04 11:24:51;;;;;;;11.23;8.43;;;27.40;38.90;;;;;;5049402;28;20457;-73
2022/06/04 11:27:36;;;;;;;10.43;7.63;;;27.60;40.00;;;;;;5045134;28;20485;-73
2022/06/04 11:30:06;;;;;;;13.33;8.77;;;27.70;37.30;;;;;;5043686;28;20441;-72
2022/06/04 11:33:02;;;;;;;10.90;8.30;;;27.20;40.20;;;;;;5050058;28;20954;-73
2022/06/04 11:35:41;;;;;;;10.53;8.30;;;26.40;44.20;;;;;;5050499;28;20414;-76
2022/06/04 11:38:18;;;;;;;15.43;9.00;;;27.10;42.00;;;;;;5050974;28;20514;-72
2022/06/04 11:40:59;;;;;;;11.27;8.63;;;27.90;41.70;;;;;;5050211;28;20465;-72
2022/06/04 11:43:49;;;;;;;13.33;8.30;;;26.70;41.60;;;;;;5050473;28;20434;-73
2022/06/04 11:46:45;;;;;;;13.67;8.90;;;26.30;45.20;;;;;;5044101;28;20415;-73
2022/06/04 11:49:32;;;;;;;12.77;9.20;;;26.70;43.60;;;;;;5043516;28;20469;-73
2022/06/04 11:52:05;;;;;;;12.27;9.00;;;27.00;43.30;;;;;;5050187;28;20432;-72
2022/06/04 11:54:36;;;;;;;11.97;8.40;;;26.20;44.70;;;;;;5042221;28;20471;-73
2022/06/04 11:57:16;;;;;;;16.13;8.97;;;26.70;47.50;;;;;;5044170;28;20990;-73
2022/06/04 11:59:42;;;;;;;13.10;8.70;;;27.50;44.90;;;;;;5048023;28;20462;-73
2022/06/04 12:02:19;;;;;;;13.67;9.50;;;28.10;41.80;;;;;;5050185;28;20857;-73
2022/06/04 12:05:00;;;;;;;15.20;9.07;;;28.30;40.20;;;;;;5048456;28;20694;-74
2022/06/04 12:07:48;;;;;;;19.83;9.60;;;29.60;38.30;;;;;;5045047;28;20464;-73
2022/06/04 12:10:53;;;;;;;27.47;9.00;;;30.50;35.00;;;;;;5041193;28;20434;-72
2022/06/04 12:13:23;;;;;;;16.00;8.90;;;31.40;29.20;;;;;;5042463;28;20458;-73
2022/06/04 12:15:57;;;;;;;16.80;8.87;;;31.50;29.40;;;;;;5032160;28;20476;-73
2022/06/04 12:18:27;;;;;;;13.93;9.20;;;31.00;29.80;;;;;;5047184;28;20425;-73
2022/06/04 12:26:34;;;;;;;12.43;8.77;;;30.50;31.00;;;;;;5053649;28;20791;-73
2022/06/04 12:29:21;;;;;;;13.23;8.80;;;29.90;32.80;;;;;;5050729;28;20473;-73
2022/06/04 12:31:58;;;;;;;13.33;8.87;;;30.30;33.10;;;;;;5047022;28;20528;-73
2022/06/04 12:34:29;;;;;;;11.40;9.73;;;30.90;31.70;;;;;;5052061;28;20434;-73
2022/06/04 12:36:56;;;;;;;12.83;9.00;;;30.70;32.00;;;;;;5054208;28;20524;-73
2022/06/04 12:39:27;;;;;;;14.13;9.67;;;30.20;31.50;;;;;;5051980;28;20512;-73
2022/06/04 12:41:59;;;;;;;12.60;10.33;;;30.00;31.90;;;;;;5048722;28;20528;-71
2022/06/04 12:44:35;;;;;;;13.63;9.30;;;29.30;32.00;;;;;;5049815;28;21277;-72
2022/06/04 12:47:20;;;;;;;12.60;9.30;;;28.40;36.70;;;;;;5047378;28;20444;-74
2022/06/04 12:50:04;;;;;;;11.30;9.43;;;28.90;36.50;;;;;;5043149;28;20427;-74
2022/06/04 12:52:49;;;;;;;11.70;9.50;;;29.90;34.10;;;;;;5041084;28;20448;-74
2022/06/04 12:55:30;;;;;;;13.40;9.23;;;30.50;32.50;;;;;;5047338;28;20519;-73
2022/06/04 12:58:30;;;;;;;12.63;8.77;;;31.20;30.70;;;;;;5046998;28;20464;-73
2022/06/04 13:00:58;;;;;;;12.40;9.67;;;30.30;32.60;;;;;;5033773;28;20469;-77
2022/06/04 13:03:37;;;;;;;14.70;10.03;;;30.50;30.40;;;;;;5048109;28;20459;-73
2022/06/04 13:06:23;;;;;;;13.93;9.80;;;30.60;33.30;;;;;;5048148;28;20460;-74
2022/06/04 13:09:12;;;;;;;15.73;11.00;;;30.60;31.80;;;;;;5042093;28;21019;-75
2022/06/04 13:12:01;;;;;;;33.23;10.97;;;30.60;31.40;;;;;;5041995;28;20886;-73
2022/06/04 13:14:36;;;;;;;16.17;10.20;;;30.90;30.90;;;;;;5050009;28;20445;-73
2022/06/04 13:17:39;;;;;;;15.73;10.10;;;30.40;30.70;;;;;;5046977;28;20564;-73